createdAt,value
2022-12-22T00:01:50.411Z,48.58
2022-12-22T00:04:10.707Z,48.88
2022-12-22T00:06:30.830Z,48.88
2022-12-22T00:08:50.914Z,49.64
2022-12-22T00:11:10.727Z,49.23
2022-12-22T00:13:30.695Z,49.27
2022-12-22T00:15:50.744Z,49.19
2022-12-22T00:18:10.600Z,48.83
2022-12-22T00:20:30.539Z,49.00
2022-12-22T00:22:50.407Z,49.08
2022-12-22T00:25:10.250Z,49.34
2022-12-22T00:27:30.036Z,49.37
2022-12-22T00:29:50.009Z,49.31
2022-12-22T00:32:09.886Z,49.48
2022-12-22T00:34:32.643Z,49.92
2022-12-22T00:36:53.106Z,49.53
2022-12-22T00:39:13.005Z,49.93
2022-12-22T00:41:33.241Z,49.71
2022-12-22T00:43:53.132Z,42.94
2022-12-22T00:46:12.952Z,44.66
2022-12-22T00:48:33.084Z,47.11
2022-12-22T00:50:52.974Z,45.88
2022-12-22T00:53:12.886Z,45.77
2022-12-22T00:55:32.692Z,45.91
2022-12-22T00:57:52.618Z,46.78
2022-12-22T01:00:12.662Z,46.74
2022-12-22T01:02:32.602Z,46.94
2022-12-22T01:04:52.826Z,47.12
2022-12-22T01:07:12.763Z,47.77
2022-12-22T01:09:32.626Z,47.80
2022-12-22T01:11:52.527Z,47.82
2022-12-22T01:14:12.365Z,48.21
2022-12-22T01:16:32.297Z,48.30
2022-12-22T01:18:52.655Z,47.82
2022-12-22T01:21:12.651Z,48.37
2022-12-22T01:23:32.661Z,48.58
2022-12-22T01:25:52.462Z,48.75
2022-12-22T01:28:12.361Z,48.83
2022-12-22T01:30:32.198Z,48.66
2022-12-22T01:32:52.010Z,48.66
2022-12-22T01:35:11.901Z,49.38
2022-12-22T01:37:31.734Z,49.17
2022-12-22T01:39:51.553Z,49.26
2022-12-22T01:42:11.339Z,49.85
2022-12-22T01:44:31.221Z,50.34
2022-12-22T01:46:51.294Z,50.11
2022-12-22T01:49:11.462Z,50.77
2022-12-22T01:51:31.326Z,50.40
2022-12-22T01:53:51.187Z,50.37
2022-12-22T01:56:11.055Z,50.93
2022-12-22T01:58:30.843Z,50.93
2022-12-22T02:00:50.812Z,51.19
2022-12-22T02:03:10.779Z,51.16
2022-12-22T02:05:31.011Z,51.40
2022-12-22T02:07:50.894Z,51.61
2022-12-22T02:10:10.894Z,51.78
2022-12-22T02:12:30.734Z,51.70
2022-12-22T02:14:50.597Z,52.13
2022-12-22T02:17:10.289Z,52.08
2022-12-22T02:19:30.186Z,52.54
2022-12-22T02:21:49.978Z,52.64
2022-12-22T02:24:09.776Z,52.91
2022-12-22T02:26:29.599Z,52.93
2022-12-22T02:28:49.544Z,53.13
2022-12-22T02:31:09.516Z,52.76
2022-12-22T02:33:29.446Z,52.95
2022-12-22T02:35:49.217Z,52.75
2022-12-22T02:38:09.096Z,53.00
2022-12-22T02:40:29.043Z,52.76
2022-12-22T02:42:48.934Z,52.30
2022-12-22T02:45:08.765Z,52.25
2022-12-22T02:47:28.767Z,52.22
2022-12-22T02:49:48.708Z,52.03
2022-12-22T02:52:08.633Z,52.28
2022-12-22T02:54:28.563Z,52.36
2022-12-22T02:56:48.531Z,52.43
2022-12-22T02:59:08.389Z,52.51
2022-12-22T03:01:28.480Z,52.03
2022-12-22T03:03:48.875Z,52.27
2022-12-22T03:06:09.222Z,52.12
2022-12-22T03:08:29.146Z,52.44
2022-12-22T03:10:48.956Z,52.38
2022-12-22T03:13:08.852Z,53.01
2022-12-22T03:15:28.691Z,53.50
2022-12-22T03:17:48.519Z,53.58
2022-12-22T03:20:08.262Z,53.93
2022-12-22T03:22:28.271Z,54.38
2022-12-22T03:24:48.277Z,54.39
2022-12-22T03:26:49.623Z,54.99
2022-12-22T03:28:52.129Z,54.75
2022-12-22T03:30:53.466Z,55.15
2022-12-22T03:32:54.763Z,54.40
2022-12-22T03:34:56.088Z,54.51
2022-12-22T03:36:57.388Z,54.69
2022-12-22T03:38:58.722Z,54.86
2022-12-22T03:41:00.118Z,54.61
2022-12-22T03:43:20.199Z,54.83
2022-12-22T03:45:40.014Z,55.01
2022-12-22T03:47:41.351Z,54.94
2022-12-22T03:49:42.668Z,54.96
2022-12-22T03:51:43.991Z,55.15
2022-12-22T03:53:45.343Z,55.33
2022-12-22T03:55:46.685Z,55.05
2022-12-22T03:57:47.979Z,55.45
2022-12-22T03:59:49.312Z,55.39
2022-12-22T04:01:50.975Z,55.35
2022-12-22T04:03:52.403Z,55.30
2022-12-22T04:05:53.737Z,55.27
2022-12-22T04:07:55.031Z,55.33
2022-12-22T04:10:15.155Z,55.00
2022-12-22T04:12:35.135Z,54.70
2022-12-22T04:14:36.484Z,54.37
2022-12-22T04:16:37.900Z,54.60
2022-12-22T04:18:39.301Z,53.93
2022-12-22T04:20:40.617Z,54.16
2022-12-22T04:22:41.920Z,53.93
2022-12-22T04:24:43.222Z,54.00
2022-12-22T04:26:44.535Z,53.62
2022-12-22T04:28:45.896Z,53.41
2022-12-22T04:30:47.228Z,53.27
2022-12-22T04:32:48.583Z,53.35
2022-12-22T04:34:49.944Z,53.15
2022-12-22T04:36:51.235Z,53.68
2022-12-22T04:38:52.532Z,53.51
2022-12-22T04:40:53.845Z,53.34
2022-12-22T04:42:55.158Z,53.53
2022-12-22T04:44:56.478Z,53.74
2022-12-22T04:46:57.760Z,53.82
2022-12-22T04:49:00.505Z,53.50
2022-12-22T04:51:02.107Z,53.68
2022-12-22T04:53:03.432Z,53.66
2022-12-22T04:55:06.476Z,53.80
2022-12-22T04:57:07.827Z,54.29
2022-12-22T04:59:09.170Z,54.26
2022-12-22T05:01:10.641Z,53.95
2022-12-22T05:03:12.016Z,54.23
2022-12-22T05:05:13.343Z,54.76
2022-12-22T05:07:14.676Z,54.67
2022-12-22T05:09:15.967Z,54.64
2022-12-22T05:11:17.262Z,54.60
2022-12-22T05:13:18.606Z,54.79
2022-12-22T05:15:19.919Z,55.26
2022-12-22T05:17:21.210Z,55.24
2022-12-22T05:19:27.399Z,55.66
2022-12-22T05:21:31.893Z,55.52
2022-12-22T05:23:33.364Z,55.89
2022-12-22T05:25:35.525Z,55.75
2022-12-22T05:27:37.108Z,56.22
2022-12-22T05:29:38.394Z,56.53
2022-12-22T05:31:46.781Z,56.11
2022-12-22T05:33:48.545Z,55.87
2022-12-22T05:35:49.873Z,57.08
2022-12-22T05:37:51.178Z,56.93
2022-12-22T05:39:52.475Z,56.78
2022-12-22T05:41:53.772Z,56.84
2022-12-22T05:43:55.071Z,56.22
2022-12-22T05:45:56.540Z,56.17
2022-12-22T05:47:57.902Z,55.26
2022-12-22T05:49:59.247Z,55.12
2022-12-22T05:52:00.555Z,54.93
2022-12-22T05:54:01.901Z,55.50
2022-12-22T05:56:03.227Z,55.51
2022-12-22T05:58:04.584Z,55.05
2022-12-22T06:00:05.964Z,54.51
2022-12-22T06:02:07.371Z,54.47
2022-12-22T06:04:08.875Z,54.84
2022-12-22T06:06:10.307Z,54.62
2022-12-22T06:08:11.638Z,54.65
2022-12-22T06:10:13.172Z,54.50
2022-12-22T06:12:14.577Z,54.54
2022-12-22T06:14:15.875Z,54.70
2022-12-22T06:16:17.337Z,54.51
2022-12-22T06:18:18.734Z,55.19
2022-12-22T06:20:20.024Z,54.67
2022-12-22T06:22:21.444Z,54.80
2022-12-22T06:24:22.738Z,55.01
2022-12-22T06:26:24.030Z,55.15
2022-12-22T06:28:25.413Z,55.34
2022-12-22T06:30:32.889Z,54.75
2022-12-22T06:32:35.018Z,54.79
2022-12-22T06:34:36.337Z,54.95
2022-12-22T06:36:38.914Z,54.88
2022-12-22T06:38:40.316Z,54.95
2022-12-22T06:40:41.775Z,55.03
2022-12-22T06:43:08.157Z,55.38
2022-12-22T06:45:10.231Z,55.47
2022-12-22T06:47:11.582Z,55.83
2022-12-22T06:49:12.901Z,55.77
2022-12-22T06:51:14.307Z,55.39
2022-12-22T06:53:15.663Z,55.39
2022-12-22T06:55:17.003Z,55.53
2022-12-22T06:57:18.302Z,55.11
2022-12-22T06:59:19.600Z,55.44
2022-12-22T07:01:20.945Z,55.36
2022-12-22T07:03:22.642Z,55.48
2022-12-22T07:05:24.158Z,55.72
2022-12-22T07:07:25.530Z,55.64
2022-12-22T07:09:26.935Z,56.14
2022-12-22T07:11:28.259Z,56.41
2022-12-22T07:13:29.659Z,56.08
2022-12-22T07:15:31.008Z,56.20
2022-12-22T07:17:32.350Z,55.95
2022-12-22T07:19:33.646Z,56.33
2022-12-22T07:21:34.988Z,56.25
2022-12-22T07:23:36.320Z,56.44
2022-12-22T07:25:37.665Z,56.59
2022-12-22T07:27:38.994Z,56.36
2022-12-22T07:29:41.696Z,56.64
2022-12-22T07:31:43.080Z,56.49
2022-12-22T07:33:44.458Z,56.13
2022-12-22T07:35:45.743Z,56.04
2022-12-22T07:37:47.050Z,56.11
2022-12-22T07:39:48.354Z,55.83
2022-12-22T07:42:08.176Z,56.16
2022-12-22T07:44:09.479Z,55.93
2022-12-22T07:46:10.825Z,55.25
2022-12-22T07:48:31.060Z,55.60
2022-12-22T07:50:32.951Z,55.42
2022-12-22T07:52:34.283Z,55.19
2022-12-22T07:54:41.384Z,55.29
2022-12-22T07:56:43.467Z,55.19
2022-12-22T07:58:44.795Z,54.79
2022-12-22T08:00:46.138Z,55.01
2022-12-22T08:02:47.481Z,54.45
2022-12-22T08:04:48.872Z,54.21
2022-12-22T08:06:50.257Z,54.19
2022-12-22T08:08:51.554Z,54.23
2022-12-22T08:10:55.923Z,53.90
2022-12-22T08:12:57.469Z,54.19
2022-12-22T08:14:59.606Z,54.35
2022-12-22T08:17:00.954Z,54.09
2022-12-22T08:19:02.250Z,53.82
2022-12-22T08:21:03.548Z,53.92
2022-12-22T08:23:04.927Z,53.78
2022-12-22T08:25:06.297Z,53.75
2022-12-22T08:27:07.607Z,53.29
2022-12-22T08:29:08.945Z,53.35
2022-12-22T08:31:13.219Z,53.15
2022-12-22T08:33:14.543Z,53.57
2022-12-22T08:35:15.840Z,53.19
2022-12-22T08:37:17.145Z,53.06
2022-12-22T08:39:18.448Z,52.93
2022-12-22T08:41:42.270Z,49.80
2022-12-22T08:43:43.585Z,48.96
2022-12-22T08:45:44.881Z,51.05
2022-12-22T08:47:46.185Z,48.48
2022-12-22T08:49:47.588Z,48.18
2022-12-22T08:51:48.923Z,47.80
2022-12-22T08:54:06.692Z,48.03
2022-12-22T08:56:08.307Z,48.39
2022-12-22T08:58:09.603Z,48.78
2022-12-22T09:00:11.082Z,48.92
2022-12-22T09:02:12.466Z,49.06
2022-12-22T09:04:13.866Z,49.60
2022-12-22T09:06:15.170Z,49.28
2022-12-22T09:08:16.483Z,49.31
2022-12-22T09:10:17.786Z,49.36
2022-12-22T09:12:19.145Z,49.45
2022-12-22T09:14:20.455Z,49.46
2022-12-22T09:16:21.852Z,49.54
2022-12-22T09:18:23.206Z,49.80
2022-12-22T09:20:24.491Z,49.86
2022-12-22T09:22:28.160Z,49.82
2022-12-22T09:24:30.211Z,49.99
2022-12-22T09:26:31.505Z,49.65
2022-12-22T09:28:32.841Z,50.11
2022-12-22T09:30:34.169Z,50.09
2022-12-22T09:32:35.491Z,50.26
2022-12-22T09:34:36.798Z,50.14
2022-12-22T09:36:38.128Z,49.89
2022-12-22T09:38:39.442Z,50.24
2022-12-22T09:40:40.774Z,50.19
2022-12-22T09:42:42.106Z,50.12
2022-12-22T09:44:44.903Z,49.95
2022-12-22T09:46:46.248Z,49.93
2022-12-22T09:48:47.792Z,50.01
2022-12-22T09:50:49.148Z,49.97
2022-12-22T09:52:50.600Z,50.44
2022-12-22T09:54:51.958Z,50.44
2022-12-22T09:56:53.266Z,50.55
2022-12-22T09:58:54.811Z,50.01
2022-12-22T10:00:56.172Z,50.25
2022-12-22T10:02:57.605Z,50.12
2022-12-22T10:04:58.963Z,50.40
2022-12-22T10:07:00.347Z,50.03
2022-12-22T10:09:05.366Z,50.22
2022-12-22T10:11:07.646Z,50.08
2022-12-22T10:13:08.939Z,50.19
2022-12-22T10:15:10.277Z,50.46
2022-12-22T10:17:11.647Z,49.90
2022-12-22T10:19:13.022Z,49.71
2022-12-22T10:21:14.510Z,49.99
2022-12-22T10:23:15.843Z,49.97
2022-12-22T10:25:17.136Z,49.69
2022-12-22T10:27:18.489Z,49.69
2022-12-22T10:29:19.820Z,50.04
2022-12-22T10:31:21.244Z,50.59
2022-12-22T10:33:22.627Z,50.21
2022-12-22T10:35:23.931Z,50.46
2022-12-22T10:37:28.321Z,49.63
2022-12-22T10:39:29.699Z,49.26
2022-12-22T10:41:31.079Z,49.46
2022-12-22T10:43:32.506Z,50.22
2022-12-22T10:45:33.907Z,50.13
2022-12-22T10:47:35.314Z,49.60
2022-12-22T10:51:36.779Z,50.78
2022-12-22T10:53:38.110Z,50.50
2022-12-22T10:55:39.411Z,50.50
2022-12-22T10:57:40.734Z,50.74
2022-12-22T10:59:42.232Z,50.46
2022-12-22T11:01:43.601Z,50.27
2022-12-22T11:03:45.130Z,50.30
2022-12-22T11:05:46.493Z,50.15
2022-12-22T11:07:47.945Z,50.18
2022-12-22T11:09:49.352Z,50.45
2022-12-22T11:11:51.934Z,50.32
2022-12-22T11:13:54.230Z,50.65
2022-12-22T11:15:55.522Z,50.51
2022-12-22T11:17:56.847Z,50.55
2022-12-22T11:19:58.183Z,49.78
2022-12-22T11:21:59.484Z,50.29
2022-12-22T11:24:00.817Z,50.28
2022-12-22T11:26:02.143Z,50.67
2022-12-22T11:28:03.528Z,50.63
2022-12-22T11:30:04.886Z,50.99
2022-12-22T11:32:06.186Z,50.77
2022-12-22T11:34:07.500Z,51.09
2022-12-22T11:36:09.836Z,51.09
2022-12-22T11:38:11.177Z,51.62
2022-12-22T11:40:12.507Z,51.06
2022-12-22T11:42:13.808Z,51.60
2022-12-22T11:44:15.142Z,51.38
2022-12-22T11:46:16.507Z,51.59
2022-12-22T11:48:17.807Z,52.01
2022-12-22T11:50:57.682Z,51.97
2022-12-22T11:52:40.417Z,52.39
2022-12-22T11:54:41.899Z,52.41
2022-12-22T11:56:43.533Z,52.19
2022-12-22T11:58:44.838Z,52.45
2022-12-22T12:01:13.715Z,52.22
2022-12-22T12:03:07.571Z,52.53
2022-12-22T12:05:08.943Z,52.60
2022-12-22T12:07:10.287Z,52.47
2022-12-22T12:09:11.660Z,52.85
2022-12-22T12:11:18.136Z,52.56
2022-12-22T12:13:27.439Z,52.93
2022-12-22T12:15:32.012Z,52.81
2022-12-22T12:17:33.303Z,53.21
2022-12-22T12:19:34.599Z,53.47
2022-12-22T12:21:36.266Z,53.52
2022-12-22T12:23:37.561Z,53.51
2022-12-22T12:25:38.875Z,53.66
2022-12-22T12:27:40.219Z,53.67
2022-12-22T12:29:41.517Z,53.18
2022-12-22T12:31:42.852Z,53.14
2022-12-22T12:33:44.147Z,53.35
2022-12-22T12:35:45.506Z,52.92
2022-12-22T12:37:46.824Z,52.56
2022-12-22T12:39:48.128Z,52.44
2022-12-22T12:41:49.485Z,52.22
2022-12-22T12:43:51.864Z,52.23
2022-12-22T12:45:55.297Z,51.99
2022-12-22T12:47:56.639Z,52.11
2022-12-22T12:49:58.036Z,52.25
2022-12-22T12:52:01.483Z,52.18
2022-12-22T12:54:02.792Z,52.23
2022-12-22T12:56:04.103Z,51.77
2022-12-22T12:58:05.445Z,51.87
2022-12-22T13:00:06.779Z,51.57
2022-12-22T13:02:08.328Z,51.59
2022-12-22T13:04:10.787Z,51.83
2022-12-22T13:06:12.220Z,51.41
2022-12-22T13:08:15.396Z,51.48
2022-12-22T13:10:16.758Z,51.18
2022-12-22T13:12:24.312Z,51.44
2022-12-22T13:14:26.069Z,50.92
2022-12-22T13:16:27.728Z,51.26
2022-12-22T13:18:29.349Z,51.01
2022-12-22T13:20:31.234Z,51.34
2022-12-22T13:22:32.581Z,50.83
2022-12-22T13:24:33.901Z,51.38
2022-12-22T13:26:35.273Z,50.94
2022-12-22T13:28:36.570Z,51.40
2022-12-22T13:30:37.863Z,51.34
2022-12-22T13:32:39.239Z,51.36
2022-12-22T13:35:04.362Z,51.52
2022-12-22T13:37:01.899Z,51.36
2022-12-22T13:39:09.007Z,51.27
2022-12-22T13:41:10.320Z,51.44
2022-12-22T13:43:11.729Z,51.12
2022-12-22T13:45:13.048Z,51.36
2022-12-22T13:47:14.872Z,51.08
2022-12-22T13:49:30.260Z,51.23
2022-12-22T13:51:37.628Z,51.17
2022-12-22T13:54:06.976Z,51.04
2022-12-22T13:56:00.379Z,51.01
2022-12-22T13:58:01.683Z,51.11
2022-12-22T14:00:02.984Z,50.80
2022-12-22T14:02:04.423Z,50.86
2022-12-22T14:04:07.936Z,50.80
2022-12-22T14:06:09.528Z,51.01
2022-12-22T14:08:12.735Z,50.64
2022-12-22T14:10:14.035Z,50.96
2022-12-22T14:12:15.326Z,50.44
2022-12-22T14:14:16.807Z,50.56
2022-12-22T14:16:18.221Z,50.63
2022-12-22T14:18:19.579Z,50.67
2022-12-22T14:20:20.892Z,50.07
2022-12-22T14:22:22.223Z,50.45
2022-12-22T14:24:23.573Z,50.54
2022-12-22T14:26:24.948Z,50.58
2022-12-22T14:28:26.307Z,50.69
2022-12-22T14:30:28.542Z,50.26
2022-12-22T14:32:32.259Z,50.25
2022-12-22T14:34:33.625Z,50.62
2022-12-22T14:36:40.566Z,50.53
2022-12-22T14:38:43.335Z,50.32
2022-12-22T14:40:45.327Z,50.16
2022-12-22T14:42:46.907Z,50.23
2022-12-22T14:44:48.257Z,50.37
2022-12-22T14:46:49.595Z,50.45
2022-12-22T14:48:50.891Z,50.12
2022-12-22T14:50:52.201Z,50.32
2022-12-22T14:52:53.522Z,50.38
2022-12-22T14:54:54.854Z,50.48
2022-12-22T14:56:56.154Z,50.26
2022-12-22T14:58:57.447Z,50.51
2022-12-22T15:00:58.797Z,50.39
2022-12-22T15:03:00.176Z,50.57
2022-12-22T15:05:01.611Z,50.46
2022-12-22T15:07:02.919Z,50.41
2022-12-22T15:09:05.441Z,50.34
2022-12-22T15:11:06.802Z,50.42
2022-12-22T15:13:08.114Z,50.43
2022-12-22T15:15:09.450Z,50.46
2022-12-22T15:17:10.957Z,50.12
2022-12-22T15:19:12.346Z,50.39
2022-12-22T15:21:13.785Z,50.15
2022-12-22T15:23:17.127Z,50.41
2022-12-22T15:25:18.688Z,50.48
2022-12-22T15:27:20.040Z,50.10
2022-12-22T15:29:24.224Z,50.07
2022-12-22T15:31:25.641Z,50.01
2022-12-22T15:33:27.016Z,50.03
2022-12-22T15:35:28.313Z,50.26
2022-12-22T15:37:29.741Z,50.35
2022-12-22T15:39:31.037Z,50.11
2022-12-22T15:41:32.342Z,50.23
2022-12-22T15:45:56.556Z,50.23
2022-12-22T15:47:58.004Z,50.07
2022-12-22T15:49:59.298Z,50.31
2022-12-22T15:52:00.631Z,50.27
2022-12-22T15:54:04.727Z,49.91
2022-12-22T15:56:06.047Z,50.24
2022-12-22T15:58:07.351Z,49.93
2022-12-22T16:00:08.647Z,50.01
2022-12-22T16:02:10.201Z,50.04
2022-12-22T16:04:11.839Z,50.21
2022-12-22T16:06:13.752Z,49.95
2022-12-22T16:08:18.083Z,50.14
2022-12-22T16:10:19.834Z,50.06
2022-12-22T16:12:21.157Z,49.99
2022-12-22T16:14:22.462Z,50.29
2022-12-22T16:16:23.881Z,50.13
2022-12-22T16:18:25.227Z,50.06
2022-12-22T16:20:26.565Z,50.24
2022-12-22T16:22:27.896Z,50.10
2022-12-22T16:24:29.222Z,50.35
2022-12-22T16:26:33.439Z,50.31
2022-12-22T16:28:34.985Z,50.11
2022-12-22T16:30:36.278Z,50.27
2022-12-22T16:32:37.740Z,50.18
2022-12-22T16:34:39.224Z,50.14
2022-12-22T16:36:40.572Z,50.23
2022-12-22T16:38:41.988Z,50.25
2022-12-22T16:40:43.369Z,50.22
2022-12-22T16:45:04.445Z,50.12
2022-12-22T16:47:05.871Z,50.06
2022-12-22T16:49:07.210Z,50.17
2022-12-22T16:51:08.588Z,49.90
2022-12-22T16:53:09.886Z,49.95
2022-12-22T16:55:11.187Z,49.99
2022-12-22T16:57:12.519Z,50.25
2022-12-22T16:59:13.834Z,50.10
2022-12-22T17:01:17.864Z,50.04
2022-12-22T17:03:19.264Z,50.03
2022-12-22T17:05:20.992Z,49.82
2022-12-22T17:07:22.384Z,49.84
2022-12-22T17:09:23.754Z,50.15
2022-12-22T17:11:25.117Z,50.03
2022-12-22T17:13:26.421Z,50.14
2022-12-22T17:15:27.766Z,49.94
2022-12-22T17:17:35.452Z,50.21
2022-12-22T17:19:39.839Z,50.00
2022-12-22T17:21:41.137Z,50.05
2022-12-22T17:23:43.104Z,50.15
2022-12-22T17:25:44.444Z,50.06
2022-12-22T17:27:45.902Z,50.09
2022-12-22T17:29:47.431Z,49.90
2022-12-22T17:31:50.079Z,50.12
2022-12-22T17:33:51.433Z,49.54
2022-12-22T17:35:53.293Z,50.03
2022-12-22T17:37:54.603Z,49.92
2022-12-22T17:39:58.962Z,49.89
2022-12-22T17:42:00.353Z,49.87
2022-12-22T17:44:04.460Z,49.91
2022-12-22T17:46:05.794Z,49.92
2022-12-22T17:48:07.133Z,49.52
2022-12-22T17:50:08.439Z,49.65
2022-12-22T17:52:09.785Z,49.94
2022-12-22T17:54:11.112Z,49.68
2022-12-22T17:56:12.427Z,50.02
2022-12-22T17:58:13.746Z,49.91
2022-12-22T18:00:18.275Z,49.93
2022-12-22T18:02:20.026Z,50.06
2022-12-22T18:04:22.057Z,49.92
2022-12-22T18:06:23.469Z,50.17
2022-12-22T18:08:24.799Z,50.31
2022-12-22T18:10:26.112Z,50.39
2022-12-22T18:12:27.434Z,50.66
2022-12-22T18:14:28.770Z,50.63
2022-12-22T18:16:30.166Z,50.76
2022-12-22T18:18:32.219Z,50.62
2022-12-22T18:20:33.568Z,50.72
2022-12-22T18:22:34.854Z,50.32
2022-12-22T18:24:36.186Z,50.47
2022-12-22T18:26:38.187Z,50.24
2022-12-22T18:28:39.527Z,50.43
2022-12-22T18:30:40.818Z,50.15
2022-12-22T18:32:42.152Z,50.25
2022-12-22T18:34:43.493Z,49.89
2022-12-22T18:36:45.739Z,50.24
2022-12-22T18:38:47.411Z,50.21
2022-12-22T18:40:48.711Z,50.05
2022-12-22T18:42:50.022Z,49.85
2022-12-22T18:44:51.390Z,49.70
2022-12-22T18:46:53.175Z,49.91
2022-12-22T18:48:57.814Z,49.58
2022-12-22T18:51:01.813Z,49.76
2022-12-22T18:53:03.200Z,49.70
2022-12-22T18:55:04.526Z,49.75
2022-12-22T18:57:05.824Z,49.92
2022-12-22T18:59:07.168Z,49.74
2022-12-22T19:01:08.555Z,49.50
2022-12-22T19:03:10.090Z,49.68
2022-12-22T19:05:11.473Z,49.50
2022-12-22T19:07:12.777Z,49.64
2022-12-22T19:09:14.153Z,49.65
2022-12-22T19:11:15.506Z,49.53
2022-12-22T19:13:16.832Z,49.24
2022-12-22T19:15:18.242Z,49.37
2022-12-22T19:17:19.568Z,49.39
2022-12-22T19:19:24.150Z,49.18
2022-12-22T19:21:25.593Z,48.99
2022-12-22T19:23:26.926Z,49.63
2022-12-22T19:25:28.476Z,49.17
2022-12-22T19:27:29.799Z,49.05
2022-12-22T19:29:31.161Z,49.19
2022-12-22T19:31:33.252Z,49.26
2022-12-22T19:33:35.159Z,49.45
2022-12-22T19:35:36.517Z,49.52
2022-12-22T19:37:37.801Z,49.22
2022-12-22T19:39:39.102Z,49.44
2022-12-22T19:41:43.466Z,49.45
2022-12-22T19:43:44.759Z,49.19
2022-12-22T19:45:46.099Z,49.12
2022-12-22T19:47:47.542Z,49.25
2022-12-22T19:49:51.587Z,49.62
2022-12-22T19:51:52.931Z,49.42
2022-12-22T19:53:54.384Z,49.38
2022-12-22T19:55:55.674Z,49.19
2022-12-22T19:57:57.011Z,49.04
2022-12-22T19:59:58.406Z,49.44
2022-12-22T20:01:59.951Z,49.35
2022-12-22T20:04:01.462Z,49.62
2022-12-22T20:06:02.757Z,49.16
2022-12-22T20:08:04.110Z,49.31
2022-12-22T20:10:05.446Z,49.27
2022-12-22T20:12:09.754Z,49.39
2022-12-22T20:14:11.051Z,49.14
2022-12-22T20:16:12.370Z,49.56
2022-12-22T20:18:19.355Z,49.63
2022-12-22T20:20:20.691Z,49.17
2022-12-22T20:22:22.027Z,49.26
2022-12-22T20:24:23.442Z,49.35
2022-12-22T20:26:24.973Z,49.04
2022-12-22T20:28:26.268Z,49.07
2022-12-22T20:30:27.779Z,49.35
2022-12-22T20:32:29.215Z,49.41
2022-12-22T20:34:30.575Z,49.62
2022-12-22T20:36:32.107Z,49.55
2022-12-22T20:38:33.548Z,49.40
2022-12-22T20:40:34.931Z,49.29
2022-12-22T20:42:39.091Z,49.03
2022-12-22T20:44:40.395Z,49.08
2022-12-22T20:47:01.736Z,49.59
2022-12-22T20:49:03.086Z,49.59
2022-12-22T20:51:04.502Z,49.27
2022-12-22T20:53:05.922Z,49.28
2022-12-22T20:55:07.240Z,49.40
2022-12-22T20:57:08.560Z,49.16
2022-12-22T20:59:09.850Z,49.23
2022-12-22T21:01:11.206Z,49.01
2022-12-22T21:03:12.636Z,49.05
2022-12-22T21:05:14.949Z,48.80
2022-12-22T21:07:16.375Z,49.23
2022-12-22T21:09:17.760Z,48.72
2022-12-22T21:11:19.089Z,49.13
2022-12-22T21:13:20.515Z,49.21
2022-12-22T21:15:21.809Z,48.93
2022-12-22T21:17:23.307Z,48.96
2022-12-22T21:19:24.643Z,49.27
2022-12-22T21:21:26.081Z,49.10
2022-12-22T21:23:27.420Z,48.92
2022-12-22T21:25:28.735Z,49.11
2022-12-22T21:27:31.022Z,49.21
2022-12-22T21:29:32.328Z,49.24
2022-12-22T21:31:33.727Z,48.88
2022-12-22T21:33:35.602Z,48.92
2022-12-22T21:35:36.940Z,49.06
2022-12-22T21:37:38.291Z,48.72
2022-12-22T21:39:41.839Z,48.99
2022-12-22T21:42:01.782Z,48.87
2022-12-22T21:44:03.223Z,49.16
2022-12-22T21:46:04.590Z,49.06
2022-12-22T21:48:05.980Z,48.99
2022-12-22T21:50:07.280Z,48.95
2022-12-22T21:52:08.590Z,49.34
2022-12-22T21:54:09.955Z,48.96
2022-12-22T21:56:11.252Z,49.28
2022-12-22T21:58:12.587Z,49.34
2022-12-22T22:00:13.976Z,48.94
2022-12-22T22:02:15.379Z,48.86
2022-12-22T22:04:16.786Z,49.38
2022-12-22T22:06:18.084Z,49.01
2022-12-22T22:08:19.393Z,49.31
2022-12-22T22:10:20.731Z,49.09
2022-12-22T22:12:35.100Z,48.99
2022-12-22T22:14:36.423Z,49.14
2022-12-22T22:16:37.771Z,49.28
2022-12-22T22:18:39.142Z,49.37
2022-12-22T22:20:40.466Z,50.69
2022-12-22T22:22:41.762Z,49.77
2022-12-22T22:24:43.062Z,48.83
2022-12-22T22:26:44.359Z,48.81
2022-12-22T22:28:45.703Z,48.59
2022-12-22T22:30:47.004Z,49.03
2022-12-22T22:32:48.354Z,48.55
2022-12-22T22:34:49.684Z,49.27
2022-12-22T22:36:50.999Z,48.71
2022-12-22T22:38:52.338Z,49.12
2022-12-22T22:40:53.642Z,48.77
2022-12-22T22:42:56.837Z,48.87
2022-12-22T22:44:58.218Z,49.46
2022-12-22T22:47:00.103Z,49.07
2022-12-22T22:49:01.476Z,49.49
2022-12-22T22:51:02.799Z,49.86
2022-12-22T22:53:04.098Z,49.91
2022-12-22T22:55:05.395Z,49.81
2022-12-22T22:57:06.818Z,50.10
2022-12-22T22:59:08.151Z,50.26
2022-12-22T23:01:09.463Z,50.69
2022-12-22T23:03:10.905Z,50.58
2022-12-22T23:05:18.582Z,50.25
2022-12-22T23:07:23.610Z,50.45
2022-12-22T23:09:24.915Z,50.55
2022-12-22T23:11:26.275Z,51.17
2022-12-22T23:13:27.575Z,50.70
2022-12-22T23:15:28.910Z,51.03
2022-12-22T23:17:30.333Z,50.92
2022-12-22T23:19:31.728Z,50.31
2022-12-22T23:21:33.638Z,50.69
2022-12-22T23:23:34.981Z,50.88
2022-12-22T23:25:36.281Z,51.21
2022-12-22T23:27:37.608Z,50.86
2022-12-22T23:29:39.116Z,51.02
2022-12-22T23:31:40.431Z,51.19
2022-12-22T23:33:41.801Z,52.23
2022-12-22T23:35:43.130Z,52.31
2022-12-22T23:37:44.418Z,52.08
2022-12-22T23:39:45.711Z,51.65
2022-12-22T23:41:47.083Z,51.59
2022-12-22T23:43:48.427Z,51.48
2022-12-22T23:45:49.723Z,51.21
2022-12-22T23:47:51.066Z,51.42
2022-12-22T23:49:52.358Z,51.46
2022-12-22T23:51:53.686Z,51.29
2022-12-22T23:53:55.040Z,51.66
2022-12-22T23:55:56.417Z,51.29
2022-12-22T23:57:57.728Z,50.60
2022-12-22T23:59:59.019Z,51.28
